Time;durP1;ratioP1;P1;durP2;ratioP2;P2;SDS_P1;SDS_P2;PMS_P1;PMS_P2;Temp;Humidity;BMP_temperature;BMP_pressure;BME280_temperature;BME280_humidity;BME280_pressure;Samples;Min_cycle;Max_cycle;Signal;HPM_P1;HPM_P2
2022/08/14 00:00:22;;;;;;;37.83;34.53;;;;;;;20.18;100.00;100256.59;6156584;23;20112;-83
2022/08/14 00:02:52;;;;;;;35.83;32.65;;;;;;;20.19;100.00;100255.53;6156778;23;20394;-83
2022/08/14 00:05:24;;;;;;;36.85;33.85;;;;;;;20.19;100.00;100258.22;6156752;23;20466;-81
2022/08/14 00:07:53;;;;;;;34.30;31.40;;;;;;;20.41;100.00;100258.56;6156572;23;20018;-81
2022/08/14 00:10:22;;;;;;;36.85;33.55;;;;;;;20.35;100.00;100249.72;6156550;23;20432;-80
2022/08/14 00:12:52;;;;;;;35.58;32.38;;;;;;;20.26;100.00;100248.72;6156469;23;20466;-82
2022/08/14 00:15:26;;;;;;;36.25;32.83;;;;;;;20.18;100.00;100248.50;6156610;23;20466;-82
2022/08/14 00:17:53;;;;;;;36.58;33.28;;;;;;;20.34;100.00;100263.50;6156589;23;20029;-82
2022/08/14 00:20:24;;;;;;;36.40;33.30;;;;;;;19.80;100.00;100269.78;6157247;23;20339;-83
2022/08/14 00:22:51;;;;;;;35.70;32.40;;;;;;;19.83;100.00;100269.22;6156787;23;20036;-82
2022/08/14 00:25:19;;;;;;;38.85;35.85;;;;;;;20.16;100.00;100274.97;6156483;23;20323;-82
2022/08/14 00:27:47;;;;;;;37.53;34.53;;;;;;;18.91;100.00;100270.34;6156965;23;20018;-83
2022/08/14 00:30:15;;;;;;;38.63;35.72;;;;;;;19.60;100.00;100273.34;6156488;23;20065;-81
2022/08/14 00:32:43;;;;;;;36.17;32.92;;;;;;;19.92;100.00;100258.66;6156246;23;20032;-82
2022/08/14 00:35:11;;;;;;;37.53;34.15;;;;;;;18.98;100.00;100261.97;6156820;23;20022;-81
2022/08/14 00:37:39;;;;;;;38.00;34.72;;;;;;;19.44;100.00;100256.44;6156520;23;20025;-81
2022/08/14 00:40:09;;;;;;;39.08;35.75;;;;;;;19.41;100.00;100255.09;6156648;23;20021;-83
2022/08/14 00:42:38;;;;;;;37.35;34.22;;;;;;;18.38;100.00;100250.97;6156321;23;20021;-85
2022/08/14 00:45:10;;;;;;;36.05;32.85;;;;;;;18.87;100.00;100258.50;6156084;23;20501;-83
2022/08/14 00:47:37;;;;;;;35.90;31.83;;;;;;;19.53;100.00;100259.38;6156598;23;20087;-82
2022/08/14 00:50:07;;;;;;;34.38;31.27;;;;;;;19.63;100.00;100257.44;6156559;23;20029;-83
2022/08/14 00:52:36;;;;;;;33.38;30.58;;;;;;;19.13;100.00;100256.56;6155985;23;20043;-82
2022/08/14 00:55:05;;;;;;;37.25;33.83;;;;;;;19.57;100.00;100250.44;6156344;23;20013;-82
2022/08/14 00:57:35;;;;;;;36.25;33.05;;;;;;;19.10;100.00;100249.03;6156321;23;20022;-83
2022/08/14 01:00:11;;;;;;;34.63;31.73;;;;;;;19.63;100.00;100257.44;6156377;23;20021;-81
2022/08/14 01:02:40;;;;;;;33.60;30.88;;;;;;;20.03;100.00;100250.25;6155866;23;20027;-81
2022/08/14 01:05:22;;;;;;;36.88;33.30;;;;;;;19.92;100.00;100259.47;6156468;23;20025;-81
2022/08/14 01:07:53;;;;;;;33.75;31.05;;;;;;;19.33;100.00;100257.56;6156010;23;20079;-81
2022/08/14 01:10:21;;;;;;;35.30;32.10;;;;;;;18.53;100.00;100260.94;6156018;23;20026;-82
2022/08/14 01:12:48;;;;;;;35.10;31.88;;;;;;;19.11;100.00;100257.91;6156020;23;20100;-82
2022/08/14 01:15:20;;;;;;;34.50;31.65;;;;;;;19.47;100.00;100260.47;6155955;23;20092;-81
2022/08/14 01:23:19;;;;;;;38.00;34.95;;;;;;;19.39;100.00;100265.34;6156175;23;20056;-83
2022/08/14 01:25:50;;;;;;;33.92;30.85;;;;;;;19.30;100.00;100268.88;6156295;23;20025;-82
2022/08/14 01:28:17;;;;;;;38.00;34.72;;;;;;;18.68;100.00;100278.94;6156180;23;20466;-81
2022/08/14 01:30:44;;;;;;;35.35;31.95;;;;;;;18.48;100.00;100280.56;6156016;23;20032;-81
2022/08/14 01:33:11;;;;;;;35.58;32.45;;;;;;;19.04;100.00;100278.94;6156315;23;20025;-81
2022/08/14 01:35:43;;;;;;;34.22;31.05;;;;;;;19.01;100.00;100279.47;6156292;23;20018;-83
2022/08/14 01:38:13;;;;;;;35.95;32.97;;;;;;;18.89;100.00;100277.06;6155826;23;20092;-82
2022/08/14 01:40:42;;;;;;;35.90;32.65;;;;;;;18.32;100.00;100284.31;6155952;23;20076;-81
2022/08/14 01:43:16;;;;;;;36.10;33.13;;;;;;;19.17;100.00;100281.03;6156160;23;20018;-84
2022/08/14 01:45:44;;;;;;;39.72;36.50;;;;;;;19.19;100.00;100284.28;6155373;23;20154;-82
2022/08/14 01:48:14;;;;;;;47.58;44.38;;;;;;;18.97;100.00;100282.72;6155678;23;20026;-81
2022/08/14 01:50:43;;;;;;;48.55;45.28;;;;;;;19.09;100.00;100277.03;6155696;23;20596;-82
2022/08/14 01:53:10;;;;;;;47.75;44.40;;;;;;;19.01;100.00;100274.91;6156150;23;20021;-83
2022/08/14 01:55:40;;;;;;;34.67;31.25;;;;;;;19.25;100.00;100279.69;6155757;23;20140;-83
2022/08/14 01:58:12;;;;;;;40.00;36.28;;;;;;;19.10;100.00;100278.66;6156257;23;20021;-81
2022/08/14 02:00:39;;;;;;;35.08;31.95;;;;;;;19.02;100.00;100281.06;6156484;23;20035;-84
2022/08/14 02:03:07;;;;;;;35.55;32.75;;;;;;;19.01;100.00;100287.56;6184732;23;20032;-82
2022/08/14 02:05:35;;;;;;;37.05;34.00;;;;;;;18.92;100.00;100285.41;6185233;23;20044;-83
2022/08/14 02:08:02;;;;;;;38.83;35.63;;;;;;;18.67;100.00;100274.63;6185533;23;20017;-82
2022/08/14 02:10:30;;;;;;;35.85;32.88;;;;;;;18.69;100.00;100277.88;6186027;23;20036;-83
2022/08/14 02:12:57;;;;;;;37.97;34.55;;;;;;;18.70;100.00;100266.84;6185537;23;20097;-86
2022/08/14 02:15:26;;;;;;;40.78;37.53;;;;;;;18.39;100.00;100270.59;6185964;23;20051;-83
2022/08/14 02:17:53;;;;;;;37.78;34.63;;;;;;;18.57;100.00;100271.94;6185382;23;20040;-82
2022/08/14 02:20:21;;;;;;;41.72;38.00;;;;;;;18.39;100.00;100274.09;6185529;23;20036;-83
2022/08/14 02:22:50;;;;;;;38.55;35.40;;;;;;;18.48;100.00;100275.16;6185304;23;20021;-83
2022/08/14 02:25:18;;;;;;;37.08;33.88;;;;;;;18.32;100.00;100276.25;6185463;23;20017;-82
2022/08/14 02:27:47;;;;;;;37.00;34.20;;;;;;;18.38;100.00;100274.38;6185342;23;20025;-81
2022/08/14 02:30:15;;;;;;;35.58;32.75;;;;;;;18.28;100.00;100272.50;6185249;23;20028;-82
2022/08/14 02:32:44;;;;;;;36.55;33.53;;;;;;;18.19;100.00;100277.59;6185479;23;20438;-82
2022/08/14 02:35:17;;;;;;;36.88;33.85;;;;;;;18.02;100.00;100283.19;6186251;23;20018;-81
2022/08/14 02:37:45;;;;;;;36.95;33.92;;;;;;;17.99;100.00;100282.91;6185729;23;20021;-83
2022/08/14 02:40:14;;;;;;;36.65;33.63;;;;;;;17.91;100.00;100283.44;6185525;23;20021;-81
2022/08/14 02:42:41;;;;;;;34.67;31.67;;;;;;;18.14;100.00;100284.84;6185969;23;20111;-81
2022/08/14 02:45:10;;;;;;;34.33;31.42;;;;;;;18.33;100.00;100279.75;6184977;23;20025;-83
2022/08/14 02:47:38;;;;;;;35.17;32.15;;;;;;;18.56;100.00;100289.19;6185341;23;20101;-83
2022/08/14 02:50:08;;;;;;;34.90;31.85;;;;;;;18.24;100.00;100284.84;6185462;23;20083;-81
2022/08/14 02:52:36;;;;;;;35.47;32.45;;;;;;;18.53;100.00;100294.00;6185546;23;20426;-81
2022/08/14 02:55:05;;;;;;;36.05;33.08;;;;;;;18.62;100.00;100288.91;6185091;23;20108;-82
2022/08/14 02:57:32;;;;;;;34.92;31.92;;;;;;;18.28;100.00;100288.63;6185271;23;20028;-81
2022/08/14 03:00:00;;;;;;;34.45;31.45;;;;;;;18.29;100.00;100280.28;6187075;23;20021;-81
2022/08/14 03:02:32;;;;;;;34.90;31.85;;;;;;;18.60;100.00;100271.41;6187073;23;20024;-81
2022/08/14 03:04:59;;;;;;;35.40;32.45;;;;;;;18.47;100.00;100267.38;6186850;23;20017;-82
2022/08/14 03:07:28;;;;;;;34.60;31.80;;;;;;;18.49;100.00;100266.06;6186730;23;20374;-81
2022/08/14 03:09:56;;;;;;;39.22;36.03;;;;;;;18.46;100.00;100274.66;6186898;23;20029;-82
2022/08/14 03:12:24;;;;;;;36.75;33.67;;;;;;;18.29;100.00;100272.22;6187152;23;20381;-80
2022/08/14 03:14:52;;;;;;;39.63;36.33;;;;;;;18.43;100.00;100282.47;6187049;23;20043;-84
2022/08/14 03:17:19;;;;;;;37.38;34.33;;;;;;;18.41;100.00;100271.97;6186830;23;20071;-82
2022/08/14 03:19:45;;;;;;;35.22;32.17;;;;;;;18.18;100.00;100289.41;6186875;23;20021;-81
2022/08/14 03:22:13;;;;;;;35.22;32.28;;;;;;;18.40;100.00;100291.84;6186870;23;20025;-81
2022/08/14 03:24:42;;;;;;;35.33;32.17;;;;;;;17.94;100.00;100299.03;6186419;23;20033;-81
2022/08/14 03:27:12;;;;;;;35.72;32.55;;;;;;;17.17;100.00;100288.75;6186776;23;20614;-82
2022/08/14 03:29:40;;;;;;;36.15;32.95;;;;;;;17.63;100.00;100285.47;6186701;23;20035;-81
2022/08/14 03:32:07;;;;;;;34.38;31.27;;;;;;;17.87;100.00;100291.22;6186841;23;20045;-81
2022/08/14 03:34:36;;;;;;;35.83;32.53;;;;;;;17.75;100.00;100290.63;6187009;23;20032;-83
2022/08/14 03:37:04;;;;;;;33.10;30.27;;;;;;;18.05;100.00;100285.34;6185785;23;20021;-83
2022/08/14 03:39:31;;;;;;;34.90;31.65;;;;;;;17.56;100.00;100292.97;6186180;23;20028;-82
2022/08/14 03:42:01;;;;;;;32.25;29.25;;;;;;;18.24;100.00;100271.41;6186663;23;20024;-82
2022/08/14 03:44:28;;;;;;;33.83;30.52;;;;;;;17.95;100.00;100277.28;6186414;23;20079;-81
2022/08/14 03:46:55;;;;;;;32.45;29.35;;;;;;;18.03;100.00;100278.63;6187105;23;20051;-84
2022/08/14 03:49:24;;;;;;;32.75;29.95;;;;;;;18.63;100.00;100278.94;6186391;23;20016;-81
2022/08/14 03:51:51;;;;;;;34.63;31.15;;;;;;;18.56;100.00;100273.03;6186360;23;20021;-82
2022/08/14 03:54:18;;;;;;;32.90;29.75;;;;;;;18.33;100.00;100280.53;6186644;23;20025;-81
2022/08/14 03:56:45;;;;;;;32.30;29.30;;;;;;;18.01;100.00;100280.78;6186220;23;20028;-80
2022/08/14 03:59:13;;;;;;;31.30;28.50;;;;;;;18.23;100.00;100280.53;6186222;23;20430;-82
2022/08/14 04:01:42;;;;;;;31.67;28.55;;;;;;;18.56;100.00;100289.19;6186322;23;20024;-82
2022/08/14 04:04:10;;;;;;;32.30;28.80;;;;;;;18.90;100.00;100286.75;6186673;23;20025;-81
2022/08/14 04:06:38;;;;;;;31.40;28.65;;;;;;;18.72;100.00;100283.50;6186347;23;20087;-83
2022/08/14 04:09:07;;;;;;;31.80;29.17;;;;;;;18.54;100.00;100292.13;6186098;23;20029;-82
2022/08/14 04:11:37;;;;;;;31.48;28.67;;;;;;;18.85;100.00;100289.44;6186435;23;20032;-82
2022/08/14 04:14:05;;;;;;;32.22;28.95;;;;;;;18.95;100.00;100286.75;6186198;23;20025;-82
2022/08/14 04:16:35;;;;;;;31.00;28.13;;;;;;;18.64;100.00;100285.94;6186357;23;20025;-82
2022/08/14 04:19:03;;;;;;;31.60;28.60;;;;;;;19.18;100.00;100283.47;6186347;23;20538;-83
2022/08/14 04:21:31;;;;;;;31.55;28.75;;;;;;;18.74;100.00;100278.69;6186496;23;20024;-82
2022/08/14 04:24:00;;;;;;;31.90;29.10;;;;;;;19.14;100.00;100281.59;6186336;23;20021;-82
2022/08/14 04:26:29;;;;;;;31.70;28.92;;;;;;;19.05;100.00;100283.22;6186092;23;20032;-83
2022/08/14 04:28:58;;;;;;;33.22;29.83;;;;;;;19.25;100.00;100285.88;6186354;23;20021;-82
2022/08/14 04:31:25;;;;;;;32.70;29.67;;;;;;;19.26;100.00;100283.97;6186381;23;20056;-82
2022/08/14 04:33:54;;;;;;;33.40;30.02;;;;;;;19.38;100.00;100285.28;6186031;23;20021;-81
2022/08/14 04:36:22;;;;;;;36.72;32.80;;;;;;;19.77;100.00;100281.91;6186217;23;20033;-81
2022/08/14 04:44:19;;;;;;;36.25;32.45;;;;;;;19.85;100.00;100283.22;6186034;23;20032;-81
2022/08/14 04:49:30;;;;;;;33.88;30.58;;;;;;;20.08;100.00;100282.53;6185583;23;20432;-83
2022/08/14 04:51:59;;;;;;;31.65;28.77;;;;;;;19.97;100.00;100277.47;6185498;23;20362;-83
2022/08/14 04:54:26;;;;;;;32.13;29.35;;;;;;;20.27;100.00;100284.56;6185575;23;20095;-81
2022/08/14 04:56:55;;;;;;;33.75;30.50;;;;;;;20.36;100.00;100278.31;6185754;23;20017;-82
2022/08/14 04:59:24;;;;;;;42.38;37.20;;;;;;;20.34;100.00;100269.69;6185607;23;20483;-82
2022/08/14 05:01:51;;;;;;;37.35;33.55;;;;;;;20.58;100.00;100274.38;6185746;23;20032;-80
2022/08/14 05:04:18;;;;;;;47.20;38.95;;;;;;;20.70;100.00;100277.53;6186091;23;20139;-83
2022/08/14 05:06:47;;;;;;;30.73;28.10;;;;;;;20.55;100.00;100275.75;6185216;23;20017;-81
2022/08/14 05:09:14;;;;;;;30.33;27.55;;;;;;;20.79;100.00;100267.72;6185593;23;20025;-81
2022/08/14 05:11:43;;;;;;;32.80;29.48;;;;;;;20.84;100.00;100264.16;6185784;23;20083;-80
2022/08/14 05:14:10;;;;;;;30.90;28.30;;;;;;;20.78;100.00;100265.28;6185523;23;20040;-81
2022/08/14 05:16:38;;;;;;;31.17;28.25;;;;;;;20.94;100.00;100263.25;6186115;23;20450;-86
2022/08/14 05:19:07;;;;;;;30.02;27.33;;;;;;;21.39;100.00;100258.44;6186380;23;20343;-82
2022/08/14 05:21:34;;;;;;;32.63;29.73;;;;;;;21.52;100.00;100256.97;6185801;23;20100;-82
2022/08/14 05:24:03;;;;;;;32.10;29.23;;;;;;;21.61;100.00;100260.63;6186008;23;20067;-81
2022/08/14 05:26:30;;;;;;;32.47;29.90;;;;;;;21.84;100.00;100259.75;6185271;23;20017;-81
2022/08/14 05:28:57;;;;;;;32.10;28.98;;;;;;;22.03;100.00;100257.06;6185399;23;20021;-81
2022/08/14 05:31:24;;;;;;;31.98;29.25;;;;;;;21.96;100.00;100254.69;6185287;23;20020;-80
2022/08/14 05:33:51;;;;;;;29.67;27.00;;;;;;;21.96;100.00;100249.28;6185518;23;20517;-81
2022/08/14 05:36:18;;;;;;;31.45;28.85;;;;;;;22.13;100.00;100254.19;6185992;23;20017;-81
2022/08/14 05:38:46;;;;;;;30.80;28.30;;;;;;;22.53;100.00;100245.72;6184877;23;20021;-81
2022/08/14 05:41:17;;;;;;;32.67;29.95;;;;;;;22.55;100.00;100238.94;6184419;23;20021;-81
2022/08/14 05:43:46;;;;;;;30.45;27.70;;;;;;;22.66;100.00;100239.53;6185445;23;20508;-82
2022/08/14 05:46:17;;;;;;;32.88;30.08;;;;;;;24.20;100.00;100235.25;6185639;23;20021;-80
2022/08/14 05:48:47;;;;;;;31.67;28.35;;;;;;;26.31;100.00;100239.13;6185171;23;20110;-80
2022/08/14 05:51:16;;;;;;;31.38;28.73;;;;;;;26.98;100.00;100242.31;6185074;23;20521;-81
2022/08/14 05:53:43;;;;;;;31.33;28.73;;;;;;;27.40;100.00;100246.75;6185450;23;20021;-81
2022/08/14 05:56:10;;;;;;;30.85;28.40;;;;;;;27.53;100.00;100238.66;6184907;23;20033;-81
2022/08/14 05:58:38;;;;;;;32.50;29.60;;;;;;;27.69;100.00;100234.22;6185348;23;20036;-80
2022/08/14 06:01:08;;;;;;;32.70;29.58;;;;;;;27.43;100.00;100237.13;6185390;23;20029;-79
2022/08/14 06:03:35;;;;;;;34.03;31.13;;;;;;;27.71;100.00;100236.59;6184377;23;20091;-79
2022/08/14 06:06:02;;;;;;;33.45;30.50;;;;;;;26.38;100.00;100233.97;6185306;23;20028;-81
2022/08/14 06:08:30;;;;;;;34.25;31.05;;;;;;;24.88;100.00;100232.50;6184559;23;20438;-79
2022/08/14 06:11:02;;;;;;;34.58;31.10;;;;;;;24.70;100.00;100233.53;6184206;23;20025;-81
2022/08/14 06:13:29;;;;;;;34.47;31.43;;;;;;;25.38;100.00;100231.38;6184909;23;20095;-80
2022/08/14 06:15:57;;;;;;;33.50;30.58;;;;;;;24.99;100.00;100224.84;6184919;23;20263;-79
2022/08/14 06:18:24;;;;;;;32.88;30.08;;;;;;;25.06;100.00;100222.50;6184424;23;20025;-80
2022/08/14 06:20:51;;;;;;;33.65;30.60;;;;;;;25.25;100.00;100219.53;6184924;23;20029;-80
2022/08/14 06:23:18;;;;;;;32.15;29.35;;;;;;;25.31;100.00;100224.50;6185414;23;20021;-79
2022/08/14 06:25:45;;;;;;;33.97;30.35;;;;;;;26.33;100.00;100217.03;6183742;23;20021;-80
2022/08/14 06:28:16;;;;;;;34.80;30.85;;;;;;;26.41;100.00;100224.34;6185160;23;20025;-80
2022/08/14 06:30:43;;;;;;;33.47;30.57;;;;;;;26.95;100.00;100211.84;6184919;23;20025;-82
2022/08/14 06:33:12;;;;;;;36.13;32.67;;;;;;;26.91;100.00;100205.47;6177563;23;20032;-82
2022/08/14 06:35:39;;;;;;;35.47;32.17;;;;;;;26.19;100.00;100217.19;6185661;23;20033;-80
2022/08/14 06:38:06;;;;;;;37.13;33.45;;;;;;;26.00;100.00;100221.06;6183801;23;20693;-82
2022/08/14 06:40:38;;;;;;;34.97;31.83;;;;;;;26.05;100.00;100217.38;6185152;23;20028;-81
2022/08/14 06:43:08;;;;;;;;;;;;;;;26.17;100.00;100220.25;6186683;23;20371;-81
2022/08/14 06:48:28;;;;;;;52.53;48.05;;;;;;;26.44;100.00;100210.88;6185485;23;20029;-81
2022/08/14 06:51:01;;;;;;;50.05;45.70;;;;;;;26.59;100.00;100204.16;6186407;23;20021;-81
2022/08/14 06:53:36;;;;;;;52.40;47.75;;;;;;;26.77;100.00;100202.16;6186410;23;20017;-80
2022/08/14 06:56:31;;;;;;;36.53;33.10;;;;;;;27.03;100.00;100199.31;6186434;23;20024;-78
2022/08/14 06:58:58;;;;;;;37.00;33.47;;;;;;;27.36;100.00;100202.19;6185544;23;20025;-78
2022/08/14 07:06:55;;;;;;;36.58;33.05;;;;;;;27.67;100.00;100198.28;6186674;23;20031;-80
2022/08/14 07:09:21;;;;;;;38.05;34.25;;;;;;;27.84;100.00;100202.84;6186275;23;20036;-81
2022/08/14 07:11:48;;;;;;;37.85;34.45;;;;;;;27.97;100.00;100201.75;6186232;23;20025;-81
2022/08/14 07:14:15;;;;;;;38.92;34.78;;;;;;;28.16;100.00;100203.97;6186392;23;20021;-80
2022/08/14 07:16:42;;;;;;;35.78;32.10;;;;;;;28.00;100.00;100201.06;6089366;23;20024;-81
2022/08/14 07:19:11;;;;;;;36.05;32.50;;;;;;;28.11;100.00;100203.38;6186226;23;20020;-80
2022/08/14 07:21:38;;;;;;;37.97;34.38;;;;;;;27.92;100.00;100212.84;6185580;23;20021;-80
2022/08/14 07:24:05;;;;;;;42.85;34.80;;;;;;;28.38;100.00;100205.50;6184816;23;20070;-81
2022/08/14 07:26:32;;;;;;;35.60;32.08;;;;;;;28.36;100.00;100201.53;6185134;23;20021;-80
2022/08/14 07:29:01;;;;;;;37.13;33.13;;;;;;;28.34;100.00;100199.13;6184572;23;20032;-80
2022/08/14 07:31:28;;;;;;;37.55;33.83;;;;;;;28.39;100.00;100196.19;6014377;23;20025;-78
2022/08/14 07:33:54;;;;;;;36.60;32.90;;;;;;;28.22;100.00;100197.16;6184369;23;20028;-79
2022/08/14 07:36:23;;;;;;;35.15;31.40;;;;;;;28.07;100.00;100193.13;6184125;23;20417;-79
2022/08/14 07:38:50;;;;;;;35.40;31.67;;;;;;;28.48;100.00;100191.44;6185956;23;20056;-78
2022/08/14 07:41:17;;;;;;;35.65;31.85;;;;;;;28.59;100.00;100186.31;6185706;23;20060;-80
2022/08/14 07:43:45;;;;;;;41.53;36.83;;;;;;;28.70;100.00;100183.97;6185265;23;20025;-81
2022/08/14 07:46:15;;;;;;;37.05;33.47;;;;;;;28.77;100.00;100189.66;6186316;23;20025;-82
2022/08/14 07:48:43;;;;;;;36.60;33.22;;;;;;;28.98;100.00;100182.13;6185881;23;20024;-81
2022/08/14 07:51:10;;;;;;;36.25;32.85;;;;;;;29.05;100.00;100181.59;6185693;23;20136;-79
2022/08/14 07:53:44;;;;;;;42.95;38.83;;;;;;;28.54;100.00;100184.63;6185467;23;20517;-82
2022/08/14 07:56:19;;;;;;;47.55;43.33;;;;;;;28.31;100.00;100186.16;6185636;23;20719;-80
2022/08/14 07:59:00;;;;;;;44.13;40.28;;;;;;;28.04;100.00;100195.72;6082087;23;20048;-79
2022/08/14 08:01:29;;;;;;;53.92;47.78;;;;;;;27.94;100.00;100186.03;6183966;23;20017;-79
2022/08/14 08:04:11;;;;;;;47.90;42.70;;;;;;;28.64;100.00;100188.06;6186099;23;20080;-79
2022/08/14 08:06:41;;;;;;;37.38;33.97;;;;;;;29.53;96.15;100184.56;6185393;23;20017;-79
2022/08/14 08:09:42;;;;;;;255.70;168.52;;;;;;;29.14;97.33;100182.28;6185642;23;20091;-78
2022/08/14 08:12:14;;;;;;;46.35;41.50;;;;;;;29.48;100.00;100184.81;6165967;23;20036;-79
2022/08/14 08:14:52;;;;;;;40.85;36.67;;;;;;;29.73;100.00;100175.41;6185700;23;20103;-79
2022/08/14 08:17:19;;;;;;;64.57;55.85;;;;;;;30.15;100.00;100185.94;6173031;23;20562;-79
2022/08/14 08:19:47;;;;;;;158.35;105.03;;;;;;;30.40;100.00;100186.59;6185787;23;20028;-79
2022/08/14 08:22:14;;;;;;;253.95;154.88;;;;;;;30.05;88.25;100189.19;6185698;23;20438;-79
2022/08/14 08:24:43;;;;;;;51.00;45.55;;;;;;;30.38;93.66;100177.97;6186195;23;20389;-80
2022/08/14 08:27:19;;;;;;;92.07;72.55;;;;;;;30.38;87.48;100180.72;6185015;23;20017;-79
2022/08/14 08:29:46;;;;;;;89.38;65.85;;;;;;;30.04;86.51;100176.63;6185167;23;20068;-81
2022/08/14 08:32:15;;;;;;;289.13;162.85;;;;;;;29.86;100.00;100174.19;6185548;23;20032;-80
2022/08/14 08:34:45;;;;;;;53.17;45.25;;;;;;;30.57;94.20;100171.78;6185674;23;20100;-81
2022/08/14 08:37:12;;;;;;;422.75;280.48;;;;;;;29.95;94.85;100174.06;6186026;23;20427;-81
2022/08/14 08:39:44;;;;;;;82.43;65.07;;;;;;;29.57;100.00;100161.66;6185754;23;20044;-81
2022/08/14 08:42:13;;;;;;;614.45;294.90;;;;;;;29.15;100.00;100153.78;6185332;23;20021;-80
2022/08/14 08:44:53;;;;;;;300.75;150.60;;;;;;;29.13;100.00;100150.59;6185530;23;20017;-80
2022/08/14 08:47:20;;;;;;;534.60;334.45;;;;;;;29.64;100.00;100152.88;6185288;23;20053;-81
2022/08/14 08:49:47;;;;;;;41.90;37.58;;;;;;;29.46;100.00;100144.13;6185841;23;20028;-81
2022/08/14 08:52:14;;;;;;;39.17;35.17;;;;;;;29.46;100.00;100146.88;6186400;23;20059;-81
2022/08/14 08:54:53;;;;;;;416.63;234.75;;;;;;;28.72;100.00;100138.78;6185082;23;20032;-81
2022/08/14 08:57:37;;;;;;;;;;;;;;;;;;;;;
2022/08/14 09:03:16;;;;;;;;;;;;;;;;;;;;;
2022/08/14 09:06:07;;;;;;;129.57;87.40;;;;;;;28.33;100.00;100120.28;6183438;23;20501;-82
2022/08/14 09:15:26;;;;;;;;;;;;;;;;;;;;;
2022/08/14 09:18:34;;;;;;;;;;;;;;;;;;;;;
2022/08/14 09:21:33;;;;;;;175.55;105.03;;;;;;;27.84;100.00;100105.41;6174561;23;20100;-80
2022/08/14 09:24:38;;;;;;;;;;;;;;;;;;;;;
2022/08/14 09:34:21;;;;;;;122.22;81.10;;;;;;;25.17;100.00;100115.13;6182179;23;20144;-82
2022/08/14 09:43:58;;;;;;;;;;;;;;;;;;;;;
2022/08/14 09:47:03;;;;;;;116.47;75.78;;;;;;;25.15;100.00;100106.53;6184245;23;20028;-81
2022/08/14 09:49:41;;;;;;;93.15;65.53;;;;;;;24.94;100.00;100119.88;6184407;23;20024;-80
2022/08/14 09:52:13;;;;;;;78.18;62.55;;;;;;;24.88;100.00;100107.56;6185174;23;20398;-80
2022/08/14 09:54:52;;;;;;;132.15;93.85;;;;;;;24.17;100.00;100115.72;6184844;23;20458;-80
2022/08/14 09:57:29;;;;;;;72.75;61.42;;;;;;;24.20;100.00;100107.75;6185438;23;20080;-80
2022/08/14 09:59:56;;;;;;;51.47;46.05;;;;;;;24.72;100.00;100120.78;6184834;23;20033;-80
2022/08/14 10:02:36;;;;;;;53.45;47.88;;;;;;;25.32;100.00;100122.03;6184995;23;20449;-80
2022/08/14 10:05:11;;;;;;;52.10;46.78;;;;;;;25.68;100.00;100112.75;6185300;23;20025;-80
2022/08/14 10:07:59;;;;;;;45.35;41.05;;;;;;;25.46;100.00;100106.38;6186109;23;20079;-85
2022/08/14 10:10:36;;;;;;;46.47;41.78;;;;;;;26.48;100.00;100097.50;6187066;23;20056;-81
2022/08/14 10:13:10;;;;;;;48.03;43.97;;;;;;;26.96;100.00;100092.78;6185309;23;20345;-80
2022/08/14 10:16:05;;;;;;;44.15;40.00;;;;;;;27.13;100.00;100092.66;6186434;23;20021;-81
2022/08/14 10:25:53;;;;;;;44.13;40.40;;;;;;;28.53;100.00;100084.72;6033093;23;20023;-79
2022/08/14 10:32:31;;;;;;;49.70;45.70;;;;;;;29.58;100.00;100074.91;6013803;23;20102;-78
2022/08/14 10:35:32;;;;;;;39.13;35.92;;;;;;;28.66;100.00;100082.78;6016062;23;20110;-82
2022/08/14 10:41:47;;;;;;;33.65;30.83;;;;;;;27.63;100.00;100099.97;6003869;23;20037;-79
2022/08/14 10:44:23;;;;;;;47.72;43.53;;;;;;;27.05;100.00;100093.53;6180481;23;20108;-83
2022/08/14 10:47:27;;;;;;;;;;;;;;;;;;;;;
2022/08/14 11:00:10;;;;;;;;;;;;;;;;;;;;;
2022/08/14 11:02:50;;;;;;;49.40;44.92;;;;;;;24.93;100.00;100101.97;6185918;23;20096;-82
2022/08/14 11:05:47;;;;;;;65.78;59.20;;;;;;;24.80;100.00;100100.19;6186091;23;20457;-85
2022/08/14 11:08:33;;;;;;;54.00;49.05;;;;;;;24.85;100.00;100105.47;6185355;23;20032;-79
2022/08/14 11:11:30;;;;;;;50.40;46.10;;;;;;;25.66;100.00;100091.31;6185724;23;20017;-78
2022/08/14 11:14:00;;;;;;;42.53;39.10;;;;;;;25.67;100.00;100075.81;6182516;23;20091;-82
2022/08/14 11:16:42;;;;;;;43.70;40.10;;;;;;;25.21;100.00;100082.72;6186137;23;20017;-84
2022/08/14 11:19:33;;;;;;;;;;;;;;;;;;;;;
2022/08/14 11:28:18;;;;;;;37.88;34.63;;;;;;;24.49;100.00;100103.78;6173036;23;20028;-82
2022/08/14 11:30:56;;;;;;;42.63;38.72;;;;;;;24.09;100.00;100087.44;6185995;23;20092;-82
2022/08/14 11:33:58;;;;;;;;;;;;;;;;;;;;;
2022/08/14 11:36:48;;;;;;;43.17;39.75;;;;;;;24.07;100.00;100070.69;6185183;23;20099;-79
2022/08/14 11:39:40;;;;;;;46.45;42.65;;;;;;;24.17;100.00;100070.41;6185651;23;20104;-78
2022/08/14 11:42:47;;;;;;;40.10;36.80;;;;;;;24.28;100.00;100065.50;6186090;23;20099;-83
2022/08/14 11:45:21;;;;;;;38.67;35.50;;;;;;;24.07;100.00;100086.94;6182428;23;20075;-79
2022/08/14 11:48:24;;;;;;;;;;;;;;;;;;;;;
2022/08/14 11:51:33;;;;;;;37.03;33.83;;;;;;;23.90;100.00;100120.19;6182523;23;20083;-80
2022/08/14 11:54:20;;;;;;;40.22;36.60;;;;;;;23.21;100.00;100120.44;6174389;23;20029;-79
2022/08/14 11:57:41;;;;;;;;;;;;;;;;;;;;;
2022/08/14 12:00:36;;;;;;;35.42;32.53;;;;;;;23.52;100.00;100136.78;5973642;23;20122;-81
2022/08/14 12:06:32;;;;;;;;;;;;;;;;;;;;;
2022/08/14 12:09:21;;;;;;;33.58;30.45;;;;;;;23.04;100.00;100145.44;6079876;23;20088;-79
2022/08/14 12:11:52;;;;;;;37.92;34.80;;;;;;;22.65;100.00;100170.28;6184317;23;20091;-82
2022/08/14 12:14:26;;;;;;;37.67;34.40;;;;;;;22.64;100.00;100174.09;6185089;23;20025;-82
2022/08/14 12:20:24;;;;;;;43.97;40.22;;;;;;;22.47;100.00;100203.63;6183003;23;20017;-79
2022/08/14 12:23:21;;;;;;;41.50;38.25;;;;;;;22.23;100.00;100212.69;6181992;23;20025;-78
2022/08/14 12:25:51;;;;;;;43.72;39.78;;;;;;;22.30;100.00;100218.53;6184883;23;20017;-79
2022/08/14 12:28:39;;;;;;;41.05;37.10;;;;;;;22.34;100.00;100237.66;6184977;23;20017;-79
2022/08/14 12:31:33;;;;;;;42.83;39.13;;;;;;;22.36;100.00;100265.22;6178065;23;20027;-79
2022/08/14 12:34:10;;;;;;;47.42;43.35;;;;;;;22.18;100.00;100267.66;6185299;23;20453;-82
2022/08/14 12:39:56;;;;;;;53.45;48.47;;;;;;;22.08;100.00;100304.84;6181626;23;20020;-80
2022/08/14 12:42:47;;;;;;;52.60;47.50;;;;;;;21.92;100.00;100304.25;6185741;23;20021;-82
2022/08/14 12:45:19;;;;;;;51.08;46.00;;;;;;;21.31;100.00;100288.78;6185240;23;20547;-79
2022/08/14 12:47:48;;;;;;;51.57;46.93;;;;;;;21.42;100.00;100284.88;6184907;23;20017;-78
2022/08/14 12:50:16;;;;;;;54.40;49.60;;;;;;;21.35;100.00;100287.91;6185303;23;20391;-82
2022/08/14 12:52:56;;;;;;;;;;;;;;;;;;;;;
2022/08/14 12:55:31;;;;;;;54.28;49.05;;;;;;;21.53;100.00;100290.97;6185057;23;20331;-82
2022/08/14 12:58:02;;;;;;;53.42;48.63;;;;;;;21.48;100.00;100313.44;6185017;23;20079;-78
2022/08/14 13:00:58;;;;;;;53.05;48.05;;;;;;;21.60;100.00;100327.34;6184655;23;20017;-81
2022/08/14 13:03:33;;;;;;;50.42;45.53;;;;;;;21.56;100.00;100336.34;6154799;23;20029;-79
2022/08/14 13:06:23;;;;;;;57.00;51.97;;;;;;;21.71;100.00;100341.56;6184825;23;20024;-78
2022/08/14 13:08:52;;;;;;;49.63;45.22;;;;;;;21.43;100.00;100340.53;6184889;23;20027;-78
2022/08/14 13:11:36;;;;;;;50.47;45.72;;;;;;;21.38;100.00;100335.19;6184608;23;20017;-79